createdAt,value
2023-05-17T00:01:06.524Z,28.70
2023-05-17T00:11:09.751Z,27.50
2023-05-17T00:21:11.518Z,26.02
2023-05-17T00:31:14.556Z,25.50
2023-05-17T00:41:17.548Z,25.02
2023-05-17T00:51:19.945Z,26.02
2023-05-17T01:01:21.716Z,26.73
2023-05-17T01:11:38.902Z,22.90
2023-05-17T01:22:07.182Z,29.15
2023-05-17T01:32:09.167Z,29.08
2023-05-17T01:42:33.431Z,28.60
2023-05-17T01:52:55.312Z,27.85
2023-05-17T02:02:57.476Z,30.52
2023-05-17T02:12:59.156Z,32.03
2023-05-17T02:23:00.798Z,32.37
2023-05-17T02:33:02.445Z,30.30
2023-05-17T02:43:04.257Z,30.80
2023-05-17T02:53:05.941Z,28.37
2023-05-17T03:03:07.665Z,30.63
2023-05-17T03:13:09.505Z,26.07
2023-05-17T03:23:11.283Z,23.53
2023-05-17T03:33:12.967Z,31.60
2023-05-17T03:43:14.797Z,38.13
2023-05-17T03:53:16.602Z,36.20
2023-05-17T04:03:20.312Z,35.33
2023-05-17T04:13:23.304Z,30.73
2023-05-17T04:23:25.265Z,32.92
2023-05-17T04:33:27.815Z,30.50
2023-05-17T04:43:29.654Z,34.38
2023-05-17T04:53:31.598Z,30.93
2023-05-17T05:03:33.299Z,33.88
2023-05-17T05:13:35.170Z,30.30
2023-05-17T05:23:37.436Z,30.70
2023-05-17T05:33:39.204Z,28.73
2023-05-17T05:43:41.002Z,24.70
2023-05-17T05:53:42.832Z,21.60
2023-05-17T06:03:48.700Z,22.95
2023-05-17T06:13:50.426Z,20.40
2023-05-17T06:33:56.949Z,21.08
2023-05-17T06:54:01.975Z,26.67
2023-05-17T07:04:03.793Z,26.77
2023-05-17T07:14:05.808Z,30.85
2023-05-17T07:34:11.476Z,23.55
2023-05-17T07:54:30.126Z,29.37
2023-05-17T08:04:31.769Z,33.35
2023-05-17T08:14:33.610Z,27.52
2023-05-17T08:24:36.050Z,33.88
2023-05-17T08:34:38.460Z,33.58
2023-05-17T08:44:40.090Z,27.42
2023-05-17T08:54:42.596Z,29.48
2023-05-17T09:04:44.572Z,21.60
2023-05-17T09:14:46.951Z,21.88
2023-05-17T09:24:49.715Z,16.80
2023-05-17T09:34:53.884Z,15.55
2023-05-17T09:45:00.185Z,16.25
2023-05-17T09:55:02.131Z,20.35
2023-05-17T10:05:05.877Z,18.83
2023-05-17T10:15:08.869Z,15.30
2023-05-17T10:25:10.847Z,17.40
2023-05-17T10:35:15.676Z,17.58
2023-05-17T10:45:20.844Z,17.75
2023-05-17T10:55:43.625Z,11.80
2023-05-17T11:06:22.758Z,15.23
2023-05-17T11:16:34.334Z,9.80
2023-05-17T11:26:40.659Z,12.95
2023-05-17T11:36:53.742Z,8.77
2023-05-17T11:47:04.548Z,13.52
2023-05-17T11:57:07.000Z,9.90
2023-05-17T12:07:10.636Z,8.60
2023-05-17T12:17:21.828Z,9.30
2023-05-17T12:27:27.380Z,13.57
2023-05-17T12:37:29.034Z,11.05
2023-05-17T12:47:32.267Z,7.60
2023-05-17T12:57:34.082Z,7.38
2023-05-17T13:07:35.760Z,3.28
2023-05-17T13:17:40.709Z,15.13
2023-05-17T13:27:46.766Z,6.00
2023-05-17T13:37:48.398Z,4.57
2023-05-17T13:47:50.215Z,6.78
2023-05-17T13:57:51.919Z,7.63
2023-05-17T14:07:55.558Z,4.47
2023-05-17T14:17:57.331Z,5.25
2023-05-17T14:27:59.306Z,5.30
2023-05-17T14:38:03.409Z,7.22
2023-05-17T14:48:05.380Z,8.30
2023-05-17T14:58:07.559Z,5.10
2023-05-17T15:08:09.677Z,7.32
2023-05-17T15:18:13.809Z,4.82
2023-05-17T15:28:15.930Z,5.38
2023-05-17T15:38:17.843Z,3.63
2023-05-17T15:48:24.893Z,1.75
2023-05-17T15:58:47.044Z,5.60
2023-05-17T16:08:48.924Z,2.70
2023-05-17T16:18:51.972Z,4.60
2023-05-17T16:28:53.844Z,1.40
2023-05-17T16:38:55.495Z,3.40
2023-05-17T16:48:57.422Z,4.80
2023-05-17T16:58:59.198Z,1.20
2023-05-17T17:09:07.721Z,1.90
2023-05-17T17:19:09.839Z,1.42
2023-05-17T17:29:11.641Z,3.50
2023-05-17T17:39:14.771Z,4.93
2023-05-17T17:49:18.910Z,2.42
2023-05-17T17:59:20.751Z,2.45
2023-05-17T18:09:23.505Z,4.13
2023-05-17T18:29:27.717Z,4.53
2023-05-17T18:39:29.914Z,4.10
2023-05-17T18:49:33.386Z,4.47
2023-05-17T18:59:40.175Z,4.10
2023-05-17T19:09:42.682Z,4.45
2023-05-17T19:19:45.006Z,3.90
2023-05-17T19:29:48.443Z,4.70
2023-05-17T19:39:50.300Z,2.90
2023-05-17T19:49:52.336Z,7.35
2023-05-17T19:59:56.134Z,5.07
2023-05-17T20:09:58.227Z,3.50
2023-05-17T20:19:59.982Z,3.03
2023-05-17T20:30:01.818Z,5.75
2023-05-17T20:40:04.701Z,5.05
2023-05-17T21:00:11.870Z,2.42
2023-05-17T21:10:13.833Z,3.67
2023-05-17T21:20:16.884Z,4.53
2023-05-17T21:30:18.847Z,4.15
2023-05-17T21:40:20.693Z,3.08
2023-05-17T21:50:22.454Z,4.30
2023-05-17T22:00:28.792Z,4.03
2023-05-17T22:10:31.071Z,2.92
2023-05-17T22:20:33.261Z,3.03
2023-05-17T22:30:35.072Z,3.67
2023-05-17T22:40:36.971Z,3.25
2023-05-17T22:50:38.896Z,4.88
2023-05-17T23:00:40.809Z,3.83
2023-05-17T23:10:45.929Z,4.05
2023-05-17T23:20:49.094Z,5.00
2023-05-17T23:30:53.678Z,6.38
2023-05-17T23:40:56.409Z,4.05
2023-05-17T23:50:58.073Z,4.97
